sensor_id;sensor_type;location;lat;lon;timestamp;temperature;humidity
70557;DHT22;58107;51.034;3.726;2022-08-21T00:00:38;17.70;83.70
70557;DHT22;58107;51.034;3.726;2022-08-21T00:03:08;17.70;83.90
70557;DHT22;58107;51.034;3.726;2022-08-21T00:05:39;17.70;84.00
70557;DHT22;58107;51.034;3.726;2022-08-21T00:08:07;17.60;84.20
70557;DHT22;58107;51.034;3.726;2022-08-21T00:10:35;17.60;84.40
70557;DHT22;58107;51.034;3.726;2022-08-21T00:13:05;17.60;84.50
70557;DHT22;58107;51.034;3.726;2022-08-21T00:15:35;17.60;84.40
70557;DHT22;58107;51.034;3.726;2022-08-21T00:18:05;17.70;84.00
70557;DHT22;58107;51.034;3.726;2022-08-21T00:20:34;17.80;83.60
70557;DHT22;58107;51.034;3.726;2022-08-21T00:23:02;17.90;83.00
70557;DHT22;58107;51.034;3.726;2022-08-21T00:25:30;18.00;82.50
70557;DHT22;58107;51.034;3.726;2022-08-21T00:27:58;18.00;82.20
70557;DHT22;58107;51.034;3.726;2022-08-21T00:30:27;17.90;82.80
70557;DHT22;58107;51.034;3.726;2022-08-21T00:32:56;17.90;83.10
70557;DHT22;58107;51.034;3.726;2022-08-21T00:35:26;17.80;83.20
70557;DHT22;58107;51.034;3.726;2022-08-21T00:37:55;17.80;83.40
70557;DHT22;58107;51.034;3.726;2022-08-21T00:40:26;17.80;83.50
70557;DHT22;58107;51.034;3.726;2022-08-21T00:42:53;17.90;83.60
70557;DHT22;58107;51.034;3.726;2022-08-21T00:45:22;17.80;83.40
70557;DHT22;58107;51.034;3.726;2022-08-21T00:47:51;17.80;83.70
70557;DHT22;58107;51.034;3.726;2022-08-21T00:50:20;17.80;83.90
70557;DHT22;58107;51.034;3.726;2022-08-21T00:52:50;17.60;84.20
70557;DHT22;58107;51.034;3.726;2022-08-21T00:55:20;17.60;84.50
70557;DHT22;58107;51.034;3.726;2022-08-21T00:57:50;17.60;84.90
70557;DHT22;58107;51.034;3.726;2022-08-21T01:00:26;17.50;85.40
70557;DHT22;58107;51.034;3.726;2022-08-21T01:02:49;17.50;85.60
70557;DHT22;58107;51.034;3.726;2022-08-21T01:05:16;17.50;85.50
70557;DHT22;58107;51.034;3.726;2022-08-21T01:07:44;17.60;85.30
70557;DHT22;58107;51.034;3.726;2022-08-21T01:10:12;17.60;84.90
70557;DHT22;58107;51.034;3.726;2022-08-21T01:12:41;17.60;84.90
70557;DHT22;58107;51.034;3.726;2022-08-21T01:15:09;17.60;85.00
70557;DHT22;58107;51.034;3.726;2022-08-21T01:17:37;17.50;85.20
70557;DHT22;58107;51.034;3.726;2022-08-21T01:20:07;17.40;85.90
70557;DHT22;58107;51.034;3.726;2022-08-21T01:22:35;17.20;86.90
70557;DHT22;58107;51.034;3.726;2022-08-21T01:25:07;17.10;87.70
70557;DHT22;58107;51.034;3.726;2022-08-21T01:27:36;16.90;88.40
70557;DHT22;58107;51.034;3.726;2022-08-21T01:30:10;16.80;88.80
70557;DHT22;58107;51.034;3.726;2022-08-21T01:32:36;16.80;89.10
70557;DHT22;58107;51.034;3.726;2022-08-21T01:35:05;16.70;89.50
70557;DHT22;58107;51.034;3.726;2022-08-21T01:37:34;16.70;89.90
70557;DHT22;58107;51.034;3.726;2022-08-21T01:40:02;16.70;90.10
70557;DHT22;58107;51.034;3.726;2022-08-21T01:42:30;16.70;90.10
70557;DHT22;58107;51.034;3.726;2022-08-21T01:44:58;16.60;90.20
70557;DHT22;58107;51.034;3.726;2022-08-21T01:47:26;16.50;90.30
70557;DHT22;58107;51.034;3.726;2022-08-21T01:49:54;16.50;90.40
70557;DHT22;58107;51.034;3.726;2022-08-21T01:52:21;16.50;90.40
70557;DHT22;58107;51.034;3.726;2022-08-21T01:54:52;16.50;90.40
70557;DHT22;58107;51.034;3.726;2022-08-21T01:57:20;16.60;90.40
70557;DHT22;58107;51.034;3.726;2022-08-21T01:59:48;16.70;90.30
70557;DHT22;58107;51.034;3.726;2022-08-21T02:02:15;16.80;90.10
70557;DHT22;58107;51.034;3.726;2022-08-21T02:04:43;16.80;90.00
70557;DHT22;58107;51.034;3.726;2022-08-21T02:07:10;16.70;89.90
70557;DHT22;58107;51.034;3.726;2022-08-21T02:09:38;16.70;89.70
70557;DHT22;58107;51.034;3.726;2022-08-21T02:12:26;16.70;89.90
70557;DHT22;58107;51.034;3.726;2022-08-21T02:14:54;16.70;90.00
70557;DHT22;58107;51.034;3.726;2022-08-21T02:17:21;16.60;90.10
70557;DHT22;58107;51.034;3.726;2022-08-21T02:19:49;16.70;90.10
70557;DHT22;58107;51.034;3.726;2022-08-21T02:22:17;16.70;90.00
70557;DHT22;58107;51.034;3.726;2022-08-21T02:24:44;16.70;90.00
70557;DHT22;58107;51.034;3.726;2022-08-21T02:27:12;16.70;90.10
70557;DHT22;58107;51.034;3.726;2022-08-21T02:29:39;16.60;90.10
70557;DHT22;58107;51.034;3.726;2022-08-21T02:32:07;16.60;90.20
70557;DHT22;58107;51.034;3.726;2022-08-21T02:34:34;16.70;90.30
70557;DHT22;58107;51.034;3.726;2022-08-21T02:37:02;16.60;90.40
70557;DHT22;58107;51.034;3.726;2022-08-21T02:39:29;16.60;90.60
70557;DHT22;58107;51.034;3.726;2022-08-21T02:41:57;16.50;90.70
70557;DHT22;58107;51.034;3.726;2022-08-21T02:44:25;16.50;91.20
70557;DHT22;58107;51.034;3.726;2022-08-21T02:46:53;16.40;91.10
70557;DHT22;58107;51.034;3.726;2022-08-21T02:49:20;16.30;91.40
70557;DHT22;58107;51.034;3.726;2022-08-21T02:51:48;16.10;91.70
70557;DHT22;58107;51.034;3.726;2022-08-21T02:54:15;16.10;92.00
70557;DHT22;58107;51.034;3.726;2022-08-21T02:56:42;16.00;92.10
70557;DHT22;58107;51.034;3.726;2022-08-21T02:59:10;16.00;92.30
70557;DHT22;58107;51.034;3.726;2022-08-21T03:01:37;15.90;92.40
70557;DHT22;58107;51.034;3.726;2022-08-21T03:04:05;15.90;92.50
70557;DHT22;58107;51.034;3.726;2022-08-21T03:06:32;15.90;92.50
70557;DHT22;58107;51.034;3.726;2022-08-21T03:09:00;15.90;92.60
70557;DHT22;58107;51.034;3.726;2022-08-21T03:11:28;15.90;92.50
70557;DHT22;58107;51.034;3.726;2022-08-21T03:13:55;15.90;92.60
70557;DHT22;58107;51.034;3.726;2022-08-21T03:16:23;15.90;92.60
70557;DHT22;58107;51.034;3.726;2022-08-21T03:18:50;15.90;92.60
70557;DHT22;58107;51.034;3.726;2022-08-21T03:21:18;15.90;92.70
70557;DHT22;58107;51.034;3.726;2022-08-21T03:23:46;15.90;92.70
70557;DHT22;58107;51.034;3.726;2022-08-21T03:26:13;15.90;92.80
70557;DHT22;58107;51.034;3.726;2022-08-21T03:28:41;15.90;92.70
70557;DHT22;58107;51.034;3.726;2022-08-21T03:31:08;16.00;92.70
70557;DHT22;58107;51.034;3.726;2022-08-21T03:33:36;16.00;92.60
70557;DHT22;58107;51.034;3.726;2022-08-21T03:36:06;16.00;92.60
70557;DHT22;58107;51.034;3.726;2022-08-21T03:38:35;15.90;92.80
70557;DHT22;58107;51.034;3.726;2022-08-21T03:41:03;15.90;93.00
70557;DHT22;58107;51.034;3.726;2022-08-21T03:43:31;15.90;93.00
70557;DHT22;58107;51.034;3.726;2022-08-21T03:46:01;15.90;93.00
70557;DHT22;58107;51.034;3.726;2022-08-21T03:48:30;15.90;93.00
70557;DHT22;58107;51.034;3.726;2022-08-21T03:50:57;15.90;93.10
70557;DHT22;58107;51.034;3.726;2022-08-21T03:53:26;15.90;93.20
70557;DHT22;58107;51.034;3.726;2022-08-21T03:55:54;15.80;93.20
70557;DHT22;58107;51.034;3.726;2022-08-21T03:58:24;15.80;93.30
70557;DHT22;58107;51.034;3.726;2022-08-21T04:00:53;15.80;93.40
70557;DHT22;58107;51.034;3.726;2022-08-21T04:03:22;15.70;93.60
70557;DHT22;58107;51.034;3.726;2022-08-21T04:05:50;15.60;93.80
70557;DHT22;58107;51.034;3.726;2022-08-21T04:08:18;15.60;93.80
70557;DHT22;58107;51.034;3.726;2022-08-21T04:10:47;15.60;93.90
70557;DHT22;58107;51.034;3.726;2022-08-21T04:13:15;15.60;94.00
70557;DHT22;58107;51.034;3.726;2022-08-21T04:15:43;15.60;94.10
70557;DHT22;58107;51.034;3.726;2022-08-21T04:18:11;15.50;94.10
70557;DHT22;58107;51.034;3.726;2022-08-21T04:20:40;15.50;94.20
70557;DHT22;58107;51.034;3.726;2022-08-21T04:23:09;15.40;94.30
70557;DHT22;58107;51.034;3.726;2022-08-21T04:25:37;15.40;94.40
70557;DHT22;58107;51.034;3.726;2022-08-21T04:28:05;15.40;94.50
70557;DHT22;58107;51.034;3.726;2022-08-21T04:30:32;15.30;94.60
70557;DHT22;58107;51.034;3.726;2022-08-21T04:33:00;15.40;94.60
70557;DHT22;58107;51.034;3.726;2022-08-21T04:35:28;15.40;94.70
70557;DHT22;58107;51.034;3.726;2022-08-21T04:37:57;15.50;94.60
70557;DHT22;58107;51.034;3.726;2022-08-21T04:40:27;15.50;94.50
70557;DHT22;58107;51.034;3.726;2022-08-21T04:43:11;15.50;94.50
70557;DHT22;58107;51.034;3.726;2022-08-21T04:45:30;15.50;94.70
70557;DHT22;58107;51.034;3.726;2022-08-21T04:47:55;15.50;94.70
70557;DHT22;58107;51.034;3.726;2022-08-21T04:50:31;15.40;94.70
70557;DHT22;58107;51.034;3.726;2022-08-21T04:52:54;15.40;94.70
70557;DHT22;58107;51.034;3.726;2022-08-21T04:55:23;15.40;94.90
70557;DHT22;58107;51.034;3.726;2022-08-21T04:57:52;15.40;94.70
70557;DHT22;58107;51.034;3.726;2022-08-21T05:00:22;15.30;94.80
70557;DHT22;58107;51.034;3.726;2022-08-21T05:02:52;15.30;94.80
70557;DHT22;58107;51.034;3.726;2022-08-21T05:05:23;15.40;94.80
70557;DHT22;58107;51.034;3.726;2022-08-21T05:07:52;15.40;94.70
70557;DHT22;58107;51.034;3.726;2022-08-21T05:10:20;15.40;94.70
70557;DHT22;58107;51.034;3.726;2022-08-21T05:12:49;15.40;94.80
70557;DHT22;58107;51.034;3.726;2022-08-21T05:15:16;15.30;94.80
70557;DHT22;58107;51.034;3.726;2022-08-21T05:17:44;15.30;94.90
70557;DHT22;58107;51.034;3.726;2022-08-21T05:20:13;15.20;94.90
70557;DHT22;58107;51.034;3.726;2022-08-21T05:22:41;15.20;95.00
70557;DHT22;58107;51.034;3.726;2022-08-21T05:25:16;15.20;95.20
70557;DHT22;58107;51.034;3.726;2022-08-21T05:27:43;15.20;95.10
70557;DHT22;58107;51.034;3.726;2022-08-21T05:30:11;15.20;95.10
70557;DHT22;58107;51.034;3.726;2022-08-21T05:32:39;15.20;95.20
70557;DHT22;58107;51.034;3.726;2022-08-21T05:35:07;15.20;95.30
70557;DHT22;58107;51.034;3.726;2022-08-21T05:37:35;15.20;95.20
70557;DHT22;58107;51.034;3.726;2022-08-21T05:40:06;15.20;95.10
70557;DHT22;58107;51.034;3.726;2022-08-21T05:42:34;15.30;95.10
70557;DHT22;58107;51.034;3.726;2022-08-21T05:45:02;15.30;95.10
70557;DHT22;58107;51.034;3.726;2022-08-21T05:47:29;15.40;95.10
70557;DHT22;58107;51.034;3.726;2022-08-21T05:49:57;15.40;95.00
70557;DHT22;58107;51.034;3.726;2022-08-21T05:52:24;15.50;95.00
70557;DHT22;58107;51.034;3.726;2022-08-21T05:54:52;15.60;94.90
70557;DHT22;58107;51.034;3.726;2022-08-21T05:57:21;15.60;94.90
70557;DHT22;58107;51.034;3.726;2022-08-21T05:59:49;15.70;94.80
70557;DHT22;58107;51.034;3.726;2022-08-21T06:02:19;15.70;94.80
70557;DHT22;58107;51.034;3.726;2022-08-21T06:04:47;15.80;94.70
70557;DHT22;58107;51.034;3.726;2022-08-21T06:07:15;15.80;94.70
70557;DHT22;58107;51.034;3.726;2022-08-21T06:09:42;15.90;94.70
70557;DHT22;58107;51.034;3.726;2022-08-21T06:12:11;15.90;94.70
70557;DHT22;58107;51.034;3.726;2022-08-21T06:14:40;16.00;94.60
70557;DHT22;58107;51.034;3.726;2022-08-21T06:17:10;16.00;94.60
70557;DHT22;58107;51.034;3.726;2022-08-21T06:19:38;16.20;94.60
70557;DHT22;58107;51.034;3.726;2022-08-21T06:22:06;16.20;94.50
70557;DHT22;58107;51.034;3.726;2022-08-21T06:24:34;16.30;94.40
70557;DHT22;58107;51.034;3.726;2022-08-21T06:27:08;16.40;94.30
70557;DHT22;58107;51.034;3.726;2022-08-21T06:29:36;16.50;94.20
70557;DHT22;58107;51.034;3.726;2022-08-21T06:32:05;16.70;94.00
70557;DHT22;58107;51.034;3.726;2022-08-21T06:34:40;16.70;94.00
70557;DHT22;58107;51.034;3.726;2022-08-21T06:37:08;16.80;93.90
70557;DHT22;58107;51.034;3.726;2022-08-21T06:39:36;16.90;93.90
70557;DHT22;58107;51.034;3.726;2022-08-21T06:42:04;17.10;93.70
70557;DHT22;58107;51.034;3.726;2022-08-21T06:44:31;17.20;93.20
70557;DHT22;58107;51.034;3.726;2022-08-21T06:46:59;17.30;93.40
70557;DHT22;58107;51.034;3.726;2022-08-21T06:49:27;17.40;93.30
70557;DHT22;58107;51.034;3.726;2022-08-21T06:51:54;17.60;93.30
70557;DHT22;58107;51.034;3.726;2022-08-21T06:54:22;17.60;93.20
70557;DHT22;58107;51.034;3.726;2022-08-21T06:56:49;17.70;93.20
70557;DHT22;58107;51.034;3.726;2022-08-21T06:59:17;17.80;93.20
70557;DHT22;58107;51.034;3.726;2022-08-21T07:01:45;18.00;93.10
70557;DHT22;58107;51.034;3.726;2022-08-21T07:04:12;18.00;93.00
70557;DHT22;58107;51.034;3.726;2022-08-21T07:06:40;18.00;92.90
70557;DHT22;58107;51.034;3.726;2022-08-21T07:09:26;18.10;92.90
70557;DHT22;58107;51.034;3.726;2022-08-21T07:11:56;18.30;92.70
70557;DHT22;58107;51.034;3.726;2022-08-21T07:14:23;18.40;92.50
70557;DHT22;58107;51.034;3.726;2022-08-21T07:16:51;18.50;92.30
70557;DHT22;58107;51.034;3.726;2022-08-21T07:19:19;18.50;92.20
70557;DHT22;58107;51.034;3.726;2022-08-21T07:21:47;18.60;91.90
70557;DHT22;58107;51.034;3.726;2022-08-21T07:24:14;18.60;92.10
70557;DHT22;58107;51.034;3.726;2022-08-21T07:26:42;18.60;92.00
70557;DHT22;58107;51.034;3.726;2022-08-21T07:29:09;18.70;92.00
70557;DHT22;58107;51.034;3.726;2022-08-21T07:31:37;18.80;91.90
70557;DHT22;58107;51.034;3.726;2022-08-21T07:34:05;18.70;91.90
70557;DHT22;58107;51.034;3.726;2022-08-21T07:36:32;18.70;92.10
70557;DHT22;58107;51.034;3.726;2022-08-21T07:39:00;18.70;92.20
70557;DHT22;58107;51.034;3.726;2022-08-21T07:41:29;18.90;91.80
70557;DHT22;58107;51.034;3.726;2022-08-21T07:43:58;19.00;91.70
70557;DHT22;58107;51.034;3.726;2022-08-21T07:46:26;19.00;91.20
70557;DHT22;58107;51.034;3.726;2022-08-21T07:48:54;19.10;91.10
70557;DHT22;58107;51.034;3.726;2022-08-21T07:51:24;19.20;90.70
70557;DHT22;58107;51.034;3.726;2022-08-21T07:53:55;19.20;90.50
70557;DHT22;58107;51.034;3.726;2022-08-21T07:56:23;19.30;90.40
70557;DHT22;58107;51.034;3.726;2022-08-21T07:58:51;19.30;90.20
70557;DHT22;58107;51.034;3.726;2022-08-21T08:01:18;19.40;90.10
70557;DHT22;58107;51.034;3.726;2022-08-21T08:03:46;19.50;89.30
70557;DHT22;58107;51.034;3.726;2022-08-21T08:06:14;19.40;89.20
70557;DHT22;58107;51.034;3.726;2022-08-21T08:08:43;19.40;89.40
70557;DHT22;58107;51.034;3.726;2022-08-21T08:11:12;19.40;89.40
70557;DHT22;58107;51.034;3.726;2022-08-21T08:13:50;19.50;89.30
70557;DHT22;58107;51.034;3.726;2022-08-21T08:16:14;19.60;89.30
70557;DHT22;58107;51.034;3.726;2022-08-21T08:18:42;19.60;89.00
70557;DHT22;58107;51.034;3.726;2022-08-21T08:21:30;19.80;88.30
70557;DHT22;58107;51.034;3.726;2022-08-21T08:24:00;20.00;87.40
70557;DHT22;58107;51.034;3.726;2022-08-21T08:26:28;20.20;86.40
70557;DHT22;58107;51.034;3.726;2022-08-21T08:28:55;20.20;85.50
70557;DHT22;58107;51.034;3.726;2022-08-21T08:31:23;20.30;85.80
70557;DHT22;58107;51.034;3.726;2022-08-21T08:33:51;20.30;86.70
70557;DHT22;58107;51.034;3.726;2022-08-21T08:36:20;20.40;85.00
70557;DHT22;58107;51.034;3.726;2022-08-21T08:38:51;20.50;84.50
70557;DHT22;58107;51.034;3.726;2022-08-21T08:41:20;20.50;84.00
70557;DHT22;58107;51.034;3.726;2022-08-21T08:43:54;20.70;84.00
70557;DHT22;58107;51.034;3.726;2022-08-21T08:46:44;20.70;83.40
70557;DHT22;58107;51.034;3.726;2022-08-21T08:49:18;20.70;82.10
70557;DHT22;58107;51.034;3.726;2022-08-21T08:51:47;20.90;81.20
70557;DHT22;58107;51.034;3.726;2022-08-21T08:54:43;21.00;80.10
70557;DHT22;58107;51.034;3.726;2022-08-21T08:56:51;20.90;81.10
70557;DHT22;58107;51.034;3.726;2022-08-21T08:59:23;21.00;81.10
70557;DHT22;58107;51.034;3.726;2022-08-21T09:01:51;21.10;81.40
70557;DHT22;58107;51.034;3.726;2022-08-21T09:04:26;21.20;80.20
70557;DHT22;58107;51.034;3.726;2022-08-21T09:14:57;21.00;78.60
70557;DHT22;58107;51.034;3.726;2022-08-21T09:17:44;21.00;78.70
70557;DHT22;58107;51.034;3.726;2022-08-21T09:25:41;21.00;79.20
70557;DHT22;58107;51.034;3.726;2022-08-21T09:28:09;21.00;78.80
70557;DHT22;58107;51.034;3.726;2022-08-21T09:30:40;20.80;78.60
70557;DHT22;58107;51.034;3.726;2022-08-21T09:33:09;20.80;79.60
70557;DHT22;58107;51.034;3.726;2022-08-21T09:35:57;20.90;78.80
70557;DHT22;58107;51.034;3.726;2022-08-21T09:38:11;21.00;78.30
70557;DHT22;58107;51.034;3.726;2022-08-21T09:40:45;21.20;77.40
70557;DHT22;58107;51.034;3.726;2022-08-21T09:43:17;21.20;76.40
70557;DHT22;58107;51.034;3.726;2022-08-21T09:45:46;21.20;76.80
70557;DHT22;58107;51.034;3.726;2022-08-21T09:48:20;21.20;75.40
70557;DHT22;58107;51.034;3.726;2022-08-21T09:50:50;21.30;74.40
70557;DHT22;58107;51.034;3.726;2022-08-21T09:53:24;21.50;73.50
70557;DHT22;58107;51.034;3.726;2022-08-21T09:55:56;21.80;73.20
70557;DHT22;58107;51.034;3.726;2022-08-21T09:58:45;21.80;73.00
70557;DHT22;58107;51.034;3.726;2022-08-21T10:01:16;22.10;71.40
70557;DHT22;58107;51.034;3.726;2022-08-21T10:03:44;22.00;70.10
70557;DHT22;58107;51.034;3.726;2022-08-21T10:06:21;22.00;69.10
70557;DHT22;58107;51.034;3.726;2022-08-21T10:08:49;22.00;68.70
70557;DHT22;58107;51.034;3.726;2022-08-21T10:11:17;22.10;68.90
70557;DHT22;58107;51.034;3.726;2022-08-21T10:19:42;22.60;67.60
70557;DHT22;58107;51.034;3.726;2022-08-21T10:25:31;22.70;65.60
70557;DHT22;58107;51.034;3.726;2022-08-21T10:30:41;22.60;65.40
70557;DHT22;58107;51.034;3.726;2022-08-21T10:36:02;22.70;64.50
70557;DHT22;58107;51.034;3.726;2022-08-21T10:47:02;22.70;61.70
70557;DHT22;58107;51.034;3.726;2022-08-21T10:55:21;22.80;60.90
70557;DHT22;58107;51.034;3.726;2022-08-21T10:57:53;23.00;60.80
70557;DHT22;58107;51.034;3.726;2022-08-21T11:00:22;23.30;59.60
70557;DHT22;58107;51.034;3.726;2022-08-21T11:06:00;24.00;57.30
70557;DHT22;58107;51.034;3.726;2022-08-21T11:08:27;24.00;56.70
70557;DHT22;58107;51.034;3.726;2022-08-21T11:13:57;23.90;56.60
70557;DHT22;58107;51.034;3.726;2022-08-21T11:19:22;24.10;56.50
70557;DHT22;58107;51.034;3.726;2022-08-21T11:27:30;25.00;53.70
70557;DHT22;58107;51.034;3.726;2022-08-21T11:29:55;25.20;53.60
70557;DHT22;58107;51.034;3.726;2022-08-21T11:32:51;25.50;52.70
70557;DHT22;58107;51.034;3.726;2022-08-21T11:35:39;25.80;51.90
70557;DHT22;58107;51.034;3.726;2022-08-21T11:38:15;26.10;50.60
70557;DHT22;58107;51.034;3.726;2022-08-21T11:43:55;25.80;50.80
70557;DHT22;58107;51.034;3.726;2022-08-21T11:49:09;26.10;50.50
70557;DHT22;58107;51.034;3.726;2022-08-21T11:51:50;26.70;49.50
70557;DHT22;58107;51.034;3.726;2022-08-21T11:54:28;27.00;48.20
70557;DHT22;58107;51.034;3.726;2022-08-21T11:57:24;27.80;47.40
70557;DHT22;58107;51.034;3.726;2022-08-21T11:59:47;28.40;45.30
70557;DHT22;58107;51.034;3.726;2022-08-21T12:02:21;28.90;44.20
70557;DHT22;58107;51.034;3.726;2022-08-21T12:04:55;28.50;45.20
70557;DHT22;58107;51.034;3.726;2022-08-21T12:07:41;27.60;46.60
70557;DHT22;58107;51.034;3.726;2022-08-21T12:10:15;26.70;48.30
70557;DHT22;58107;51.034;3.726;2022-08-21T12:12:44;25.70;50.60
70557;DHT22;58107;51.034;3.726;2022-08-21T12:18:05;25.30;52.20
70557;DHT22;58107;51.034;3.726;2022-08-21T12:20:37;25.00;53.20
70557;DHT22;58107;51.034;3.726;2022-08-21T12:28:21;24.60;54.80
70557;DHT22;58107;51.034;3.726;2022-08-21T12:30:47;24.70;54.20
70557;DHT22;58107;51.034;3.726;2022-08-21T12:33:38;25.00;53.60
70557;DHT22;58107;51.034;3.726;2022-08-21T12:36:12;25.30;52.80
70557;DHT22;58107;51.034;3.726;2022-08-21T12:41:31;25.80;51.90
70557;DHT22;58107;51.034;3.726;2022-08-21T12:44:13;26.60;51.10
70557;DHT22;58107;51.034;3.726;2022-08-21T12:47:00;26.90;48.90
70557;DHT22;58107;51.034;3.726;2022-08-21T12:49:36;26.80;48.80
70557;DHT22;58107;51.034;3.726;2022-08-21T12:52:14;26.30;49.70
70557;DHT22;58107;51.034;3.726;2022-08-21T12:54:41;26.00;50.60
70557;DHT22;58107;51.034;3.726;2022-08-21T12:57:17;26.30;50.20
70557;DHT22;58107;51.034;3.726;2022-08-21T12:59:39;26.00;51.30
70557;DHT22;58107;51.034;3.726;2022-08-21T13:02:14;25.80;51.60
70557;DHT22;58107;51.034;3.726;2022-08-21T13:04:40;25.70;51.50
70557;DHT22;58107;51.034;3.726;2022-08-21T13:07:11;26.20;51.10
70557;DHT22;58107;51.034;3.726;2022-08-21T13:09:59;26.80;49.60
70557;DHT22;58107;51.034;3.726;2022-08-21T13:12:23;27.70;47.30
70557;DHT22;58107;51.034;3.726;2022-08-21T13:14:54;29.50;44.50
70557;DHT22;58107;51.034;3.726;2022-08-21T13:17:23;31.50;40.10
70557;DHT22;58107;51.034;3.726;2022-08-21T13:20:00;31.10;38.50
70557;DHT22;58107;51.034;3.726;2022-08-21T13:22:29;30.50;39.70
70557;DHT22;58107;51.034;3.726;2022-08-21T13:24:57;30.80;39.80
70557;DHT22;58107;51.034;3.726;2022-08-21T13:27:27;32.60;37.40
70557;DHT22;58107;51.034;3.726;2022-08-21T13:30:07;32.80;34.90
70557;DHT22;58107;51.034;3.726;2022-08-21T13:32:37;31.30;37.60
70557;DHT22;58107;51.034;3.726;2022-08-21T13:35:10;31.90;36.80
70557;DHT22;58107;51.034;3.726;2022-08-21T13:37:40;31.60;38.00
70557;DHT22;58107;51.034;3.726;2022-08-21T13:40:11;32.60;36.30
70557;DHT22;58107;51.034;3.726;2022-08-21T13:42:42;31.40;36.00
70557;DHT22;58107;51.034;3.726;2022-08-21T13:45:31;29.00;40.80
70557;DHT22;58107;51.034;3.726;2022-08-21T13:48:00;27.70;43.60
70557;DHT22;58107;51.034;3.726;2022-08-21T13:50:29;27.40;44.60
70557;DHT22;58107;51.034;3.726;2022-08-21T13:53:03;27.20;45.20
70557;DHT22;58107;51.034;3.726;2022-08-21T13:55:41;27.60;44.80
70557;DHT22;58107;51.034;3.726;2022-08-21T13:58:10;27.40;45.20
70557;DHT22;58107;51.034;3.726;2022-08-21T14:00:47;27.10;46.30
70557;DHT22;58107;51.034;3.726;2022-08-21T14:03:50;27.10;46.00
70557;DHT22;58107;51.034;3.726;2022-08-21T14:05:51;26.90;46.10
70557;DHT22;58107;51.034;3.726;2022-08-21T14:08:27;26.20;47.60
70557;DHT22;58107;51.034;3.726;2022-08-21T14:10:51;25.90;48.60
70557;DHT22;58107;51.034;3.726;2022-08-21T14:13:37;25.60;49.80
70557;DHT22;58107;51.034;3.726;2022-08-21T14:16:17;25.90;49.50
70557;DHT22;58107;51.034;3.726;2022-08-21T14:18:51;26.10;48.30
70557;DHT22;58107;51.034;3.726;2022-08-21T14:21:30;25.70;48.70
70557;DHT22;58107;51.034;3.726;2022-08-21T14:27:03;25.40;50.00
70557;DHT22;58107;51.034;3.726;2022-08-21T14:29:40;25.50;50.20
70557;DHT22;58107;51.034;3.726;2022-08-21T14:32:14;25.60;50.20
70557;DHT22;58107;51.034;3.726;2022-08-21T14:34:42;25.30;50.20
70557;DHT22;58107;51.034;3.726;2022-08-21T14:37:10;25.20;50.70
70557;DHT22;58107;51.034;3.726;2022-08-21T14:39:38;25.30;51.00
70557;DHT22;58107;51.034;3.726;2022-08-21T14:42:06;25.30;51.10
70557;DHT22;58107;51.034;3.726;2022-08-21T14:44:34;25.30;51.10
70557;DHT22;58107;51.034;3.726;2022-08-21T14:47:03;25.50;50.90
70557;DHT22;58107;51.034;3.726;2022-08-21T14:49:31;25.80;49.80
70557;DHT22;58107;51.034;3.726;2022-08-21T14:51:58;25.90;49.50
70557;DHT22;58107;51.034;3.726;2022-08-21T14:54:28;26.10;49.00
70557;DHT22;58107;51.034;3.726;2022-08-21T14:59:45;25.40;50.20
70557;DHT22;58107;51.034;3.726;2022-08-21T15:02:12;25.00;51.90
70557;DHT22;58107;51.034;3.726;2022-08-21T15:04:40;24.90;52.80
70557;DHT22;58107;51.034;3.726;2022-08-21T15:07:08;25.20;51.30
70557;DHT22;58107;51.034;3.726;2022-08-21T15:09:36;25.30;51.10
70557;DHT22;58107;51.034;3.726;2022-08-21T15:12:04;25.70;50.20
70557;DHT22;58107;51.034;3.726;2022-08-21T15:14:36;25.40;50.70
70557;DHT22;58107;51.034;3.726;2022-08-21T15:17:06;25.00;51.70
70557;DHT22;58107;51.034;3.726;2022-08-21T15:19:34;25.20;51.70
70557;DHT22;58107;51.034;3.726;2022-08-21T15:22:02;25.00;51.90
70557;DHT22;58107;51.034;3.726;2022-08-21T15:24:30;25.30;51.60
70557;DHT22;58107;51.034;3.726;2022-08-21T15:27:00;25.50;51.30
70557;DHT22;58107;51.034;3.726;2022-08-21T15:29:29;25.90;50.70
70557;DHT22;58107;51.034;3.726;2022-08-21T15:32:02;25.90;50.50
70557;DHT22;58107;51.034;3.726;2022-08-21T15:34:30;26.10;49.90
70557;DHT22;58107;51.034;3.726;2022-08-21T15:36:58;26.60;49.10
70557;DHT22;58107;51.034;3.726;2022-08-21T15:39:27;27.60;46.70
70557;DHT22;58107;51.034;3.726;2022-08-21T15:41:54;27.80;45.90
70557;DHT22;58107;51.034;3.726;2022-08-21T15:44:22;29.40;44.00
70557;DHT22;58107;51.034;3.726;2022-08-21T15:46:51;29.50;42.20
70557;DHT22;58107;51.034;3.726;2022-08-21T15:49:19;28.60;43.40
70557;DHT22;58107;51.034;3.726;2022-08-21T15:51:46;28.70;43.40
70557;DHT22;58107;51.034;3.726;2022-08-21T15:54:14;29.10;42.70
70557;DHT22;58107;51.034;3.726;2022-08-21T15:56:44;28.60;43.70
70557;DHT22;58107;51.034;3.726;2022-08-21T15:59:19;27.30;46.50
70557;DHT22;58107;51.034;3.726;2022-08-21T16:01:51;27.40;46.70
70557;DHT22;58107;51.034;3.726;2022-08-21T16:04:25;27.60;46.00
70557;DHT22;58107;51.034;3.726;2022-08-21T16:06:54;27.10;46.60
70557;DHT22;58107;51.034;3.726;2022-08-21T16:09:22;27.30;46.70
70557;DHT22;58107;51.034;3.726;2022-08-21T16:11:50;26.20;49.10
70557;DHT22;58107;51.034;3.726;2022-08-21T16:14:19;26.40;49.30
70557;DHT22;58107;51.034;3.726;2022-08-21T16:16:47;26.50;48.70
70557;DHT22;58107;51.034;3.726;2022-08-21T16:19:15;26.60;48.60
70557;DHT22;58107;51.034;3.726;2022-08-21T16:21:42;26.80;48.20
70557;DHT22;58107;51.034;3.726;2022-08-21T16:24:10;27.10;47.10
70557;DHT22;58107;51.034;3.726;2022-08-21T16:26:38;27.20;46.70
70557;DHT22;58107;51.034;3.726;2022-08-21T16:29:06;27.20;46.60
70557;DHT22;58107;51.034;3.726;2022-08-21T16:31:34;27.00;46.70
70557;DHT22;58107;51.034;3.726;2022-08-21T16:34:02;26.90;47.10
70557;DHT22;58107;51.034;3.726;2022-08-21T16:36:30;26.90;47.50
70557;DHT22;58107;51.034;3.726;2022-08-21T16:38:58;26.70;47.90
70557;DHT22;58107;51.034;3.726;2022-08-21T16:41:33;26.70;48.10
70557;DHT22;58107;51.034;3.726;2022-08-21T16:43:57;26.50;48.10
70557;DHT22;58107;51.034;3.726;2022-08-21T16:46:28;26.40;48.30
70557;DHT22;58107;51.034;3.726;2022-08-21T16:48:56;26.40;48.20
70557;DHT22;58107;51.034;3.726;2022-08-21T16:51:24;26.40;48.50
70557;DHT22;58107;51.034;3.726;2022-08-21T16:53:51;26.30;48.70
70557;DHT22;58107;51.034;3.726;2022-08-21T16:56:21;26.10;49.20
70557;DHT22;58107;51.034;3.726;2022-08-21T16:58:49;26.00;49.50
70557;DHT22;58107;51.034;3.726;2022-08-21T17:01:19;26.10;49.00
70557;DHT22;58107;51.034;3.726;2022-08-21T17:03:50;26.10;48.60
70557;DHT22;58107;51.034;3.726;2022-08-21T17:06:22;25.60;50.30